createdAt,value
2023-02-18T00:00:22.102Z,816.22
2023-02-18T00:02:50.915Z,807.35
2023-02-18T00:05:19.303Z,809.03
2023-02-18T00:07:46.058Z,813.15
2023-02-18T00:10:14.771Z,803.97
2023-02-18T00:12:42.292Z,813.53
2023-02-18T00:15:09.749Z,813.20
2023-02-18T00:17:36.977Z,817.92
2023-02-18T00:20:05.216Z,817.88
2023-02-18T00:22:31.859Z,812.40
2023-02-18T00:24:58.582Z,813.05
2023-02-18T00:27:25.235Z,806.60
2023-02-18T00:29:51.869Z,815.42
2023-02-18T05:31:53.051Z,802.90
2023-02-18T05:34:20.059Z,801.33
2023-02-18T05:36:46.702Z,801.45
2023-02-18T05:39:13.455Z,799.13
2023-02-18T05:41:40.243Z,806.13
2023-02-18T05:44:25.469Z,796.88
2023-02-18T05:46:52.102Z,809.57
2023-02-18T05:49:18.727Z,798.70
2023-02-18T05:51:45.403Z,797.88
2023-02-18T05:54:12.621Z,807.05
2023-02-18T05:56:39.428Z,813.65
2023-02-18T05:59:06.088Z,815.27
2023-02-18T06:01:32.919Z,811.92
2023-02-18T06:03:59.546Z,805.95
2023-02-18T06:06:26.313Z,821.83
2023-02-18T06:08:52.977Z,808.00
2023-02-18T06:11:19.647Z,812.03
2023-02-18T06:13:46.408Z,806.13
2023-02-18T06:16:13.180Z,792.88
2023-02-18T06:18:40.511Z,793.15
2023-02-18T06:21:07.169Z,797.67
2023-02-18T06:23:33.919Z,788.97
2023-02-18T06:26:00.614Z,805.25
2023-02-18T06:28:27.284Z,786.75
2023-02-18T06:30:53.991Z,791.30
2023-02-18T06:33:20.708Z,794.45
2023-02-18T06:36:02.068Z,788.15
2023-02-18T06:38:29.106Z,794.78
2023-02-18T06:40:55.750Z,795.53
2023-02-18T06:43:22.782Z,801.17
2023-02-18T06:45:49.615Z,813.33
2023-02-18T06:48:17.033Z,819.90
2023-02-18T06:50:44.215Z,816.03
2023-02-18T06:53:11.503Z,816.88
2023-02-18T06:55:39.109Z,815.05
2023-02-18T06:58:05.849Z,817.92
2023-02-18T07:00:32.694Z,822.43
2023-02-18T07:02:59.402Z,822.85
2023-02-18T07:05:26.307Z,822.70
2023-02-18T07:07:53.167Z,812.70
2023-02-18T07:10:19.887Z,817.87
2023-02-18T07:12:46.826Z,814.72
2023-02-18T07:15:13.826Z,806.08
2023-02-18T07:17:40.479Z,798.92
2023-02-18T07:20:07.924Z,804.15
2023-02-18T07:22:34.774Z,796.25
2023-02-18T07:25:01.477Z,790.00
2023-02-18T07:27:28.205Z,798.33
2023-02-18T07:29:55.136Z,797.83
2023-02-18T07:32:22.689Z,811.67
2023-02-18T07:34:52.432Z,798.40
2023-02-18T07:37:20.472Z,796.65
2023-02-18T07:39:47.212Z,804.03
2023-02-18T07:42:14.438Z,802.53
2023-02-18T07:44:42.015Z,800.15
2023-02-18T07:47:12.360Z,797.40
2023-02-18T07:49:39.078Z,792.38
2023-02-18T07:52:05.757Z,794.40
2023-02-18T07:54:32.539Z,797.17
2023-02-18T07:56:59.305Z,808.75
2023-02-18T07:59:26.002Z,802.75
2023-02-18T08:01:52.746Z,795.38
2023-02-18T08:04:19.537Z,794.85
2023-02-18T08:06:48.816Z,808.53
2023-02-18T08:09:17.588Z,792.78
2023-02-18T08:11:44.424Z,789.22
2023-02-18T08:14:11.230Z,815.30
2023-02-18T08:16:37.975Z,798.90
2023-02-18T08:19:04.936Z,819.10
2023-02-18T08:21:31.847Z,825.53
2023-02-18T08:23:59.519Z,818.57
2023-02-18T08:26:26.954Z,824.15
2023-02-18T08:28:53.662Z,821.95
2023-02-18T08:31:23.655Z,825.33
2023-02-18T08:33:51.108Z,831.88
2023-02-18T08:36:18.452Z,826.67
2023-02-18T08:38:45.184Z,826.85
2023-02-18T08:41:12.159Z,823.17
2023-02-18T08:43:38.914Z,824.67
2023-02-18T08:46:06.490Z,822.28
2023-02-18T08:48:33.332Z,819.42
2023-02-18T08:51:00.407Z,803.33
2023-02-18T08:53:27.147Z,816.45
2023-02-18T08:55:53.837Z,815.20
2023-02-18T08:58:20.636Z,817.13
2023-02-18T09:00:47.424Z,824.40
2023-02-18T09:03:15.642Z,823.95
2023-02-18T09:05:42.852Z,827.67
2023-02-18T09:08:09.720Z,829.00
2023-02-18T09:10:36.405Z,836.33
2023-02-18T09:13:03.264Z,834.72
2023-02-18T09:15:32.215Z,840.55
2023-02-18T09:17:59.788Z,837.53
2023-02-18T09:20:27.229Z,832.72
2023-02-18T09:22:54.023Z,839.45
2023-02-18T09:25:20.728Z,845.33
2023-02-18T09:27:47.347Z,853.42
2023-02-18T09:30:14.256Z,856.13
2023-02-18T09:32:41.050Z,864.33
2023-02-18T09:35:08.308Z,851.75
2023-02-18T09:37:35.000Z,844.83
2023-02-18T09:40:01.728Z,854.57
2023-02-18T09:42:33.055Z,857.95
2023-02-18T09:45:05.484Z,851.25
2023-02-18T09:47:41.872Z,851.78
2023-02-18T09:50:13.148Z,846.15
2023-02-18T09:52:40.129Z,849.50
2023-02-18T09:55:21.754Z,850.55
2023-02-18T09:57:52.148Z,844.08
2023-02-18T10:00:28.648Z,850.72
2023-02-18T10:03:00.412Z,851.60
2023-02-18T10:05:29.390Z,850.67
2023-02-18T10:08:06.208Z,845.28
2023-02-18T10:10:45.141Z,846.55
2023-02-18T10:13:24.704Z,857.22
2023-02-18T10:15:51.751Z,861.57
2023-02-18T10:18:27.462Z,857.25
2023-02-18T10:21:01.148Z,856.50
2023-02-18T10:23:31.300Z,863.53
2023-02-18T10:25:59.352Z,867.10
2023-02-18T10:28:27.719Z,862.08
2023-02-18T10:31:00.827Z,856.83
2023-02-18T10:33:30.603Z,858.08
2023-02-18T10:36:23.736Z,855.03
2023-02-18T10:39:21.513Z,863.55
2023-02-18T10:42:07.294Z,865.97
2023-02-18T10:44:37.163Z,865.20
2023-02-18T10:47:41.584Z,866.75
2023-02-18T10:50:17.473Z,879.40
2023-02-18T10:52:48.149Z,874.33
2023-02-18T10:55:18.658Z,890.33
2023-02-18T10:57:54.057Z,891.22
2023-02-18T11:00:27.112Z,895.00
2023-02-18T11:03:13.284Z,897.45
2023-02-18T11:05:40.880Z,896.30
2023-02-18T11:08:20.191Z,888.67
2023-02-18T11:10:48.325Z,891.63
2023-02-18T11:13:18.356Z,885.90
2023-02-18T11:15:58.201Z,887.88
2023-02-18T11:18:54.583Z,884.17
2023-02-18T11:21:31.948Z,886.47
2023-02-18T11:24:09.063Z,883.53
2023-02-18T11:26:38.508Z,880.42
2023-02-18T11:29:25.231Z,881.50
2023-02-18T11:31:55.757Z,876.83
2023-02-18T11:34:32.741Z,881.00
2023-02-18T11:37:12.038Z,876.60
2023-02-18T11:39:44.055Z,882.03
2023-02-18T11:42:15.091Z,879.00
2023-02-18T11:44:49.192Z,866.92
2023-02-18T11:47:15.872Z,871.22
2023-02-18T11:49:44.326Z,872.63
2023-02-18T11:52:32.660Z,874.45
2023-02-18T11:55:03.643Z,870.92
2023-02-18T11:57:31.575Z,872.55
2023-02-18T12:00:00.746Z,873.55
2023-02-18T12:02:36.102Z,875.67
2023-02-18T12:05:14.506Z,877.83
2023-02-18T12:07:47.169Z,875.55
2023-02-18T12:10:36.685Z,880.88
2023-02-18T12:13:25.234Z,875.60
2023-02-18T12:16:00.731Z,874.03
2023-02-18T12:18:52.279Z,876.33
2023-02-18T12:21:43.131Z,879.47
2023-02-18T12:24:33.869Z,879.72
2023-02-18T12:27:15.519Z,879.28
2023-02-18T12:30:34.415Z,876.58
2023-02-18T12:33:06.851Z,878.88
2023-02-18T12:35:55.973Z,877.28
2023-02-18T12:38:45.533Z,876.75
2023-02-18T12:41:38.677Z,879.00
2023-02-18T12:44:05.311Z,876.90
2023-02-18T12:47:02.549Z,877.55
2023-02-18T12:50:00.243Z,881.97
2023-02-18T12:53:04.705Z,886.80
2023-02-18T12:55:34.110Z,888.15
2023-02-18T12:58:24.883Z,889.72
2023-02-18T13:00:54.313Z,890.08
2023-02-18T13:03:55.350Z,889.38
2023-02-18T13:06:59.751Z,900.92
2023-02-18T13:09:57.926Z,896.63
2023-02-18T13:12:35.935Z,897.60
2023-02-18T13:15:13.774Z,894.85
2023-02-18T13:17:42.957Z,902.95
2023-02-18T13:20:35.487Z,906.53
2023-02-18T13:23:03.427Z,910.30
2023-02-18T13:25:37.371Z,910.17
2023-02-18T13:28:40.347Z,906.73
2023-02-18T13:31:25.845Z,915.20
2023-02-18T13:34:18.149Z,899.20
2023-02-18T13:37:32.348Z,910.00
2023-02-18T13:40:00.560Z,907.97
2023-02-18T13:42:33.833Z,907.85
2023-02-18T13:45:00.382Z,906.47
2023-02-18T13:47:41.595Z,907.20
2023-02-18T13:50:23.510Z,907.45
2023-02-18T13:53:12.947Z,904.92
2023-02-18T13:56:09.484Z,913.55
2023-02-18T13:58:48.908Z,914.15
2023-02-18T14:01:30.321Z,922.83
2023-02-18T14:03:58.910Z,933.28
2023-02-18T14:06:28.620Z,919.50
2023-02-18T14:09:24.387Z,924.60
2023-02-18T14:12:15.091Z,924.80
2023-02-18T14:14:42.084Z,922.60
2023-02-18T14:17:20.741Z,909.80
2023-02-18T14:19:59.547Z,912.53
2023-02-18T14:22:28.651Z,910.72
2023-02-18T14:25:10.877Z,920.13
2023-02-18T14:27:39.637Z,917.40
2023-02-18T14:30:17.856Z,904.65
2023-02-18T14:32:46.192Z,912.38
2023-02-18T14:35:38.356Z,913.58
2023-02-18T14:38:20.269Z,902.75
2023-02-18T14:41:11.498Z,901.72
2023-02-18T14:44:06.700Z,901.80
2023-02-18T14:46:46.462Z,896.45
2023-02-18T14:49:32.604Z,903.83
2023-02-18T14:51:59.738Z,911.03
2023-02-18T14:54:28.966Z,910.25
2023-02-18T14:57:09.174Z,904.97
2023-02-18T14:59:42.180Z,898.95
2023-02-18T15:02:24.619Z,898.92
2023-02-18T15:04:51.319Z,890.40
2023-02-18T15:07:22.411Z,899.85
2023-02-18T15:09:53.833Z,893.58
2023-02-18T15:12:25.634Z,895.05
2023-02-18T15:14:55.861Z,902.97
2023-02-18T15:17:27.449Z,893.92
2023-02-18T15:20:05.136Z,898.33
2023-02-18T15:22:33.983Z,895.88
2023-02-18T15:25:01.439Z,906.38
2023-02-18T15:27:32.772Z,904.63
2023-02-18T15:30:23.046Z,911.53
2023-02-18T15:32:57.504Z,895.28
2023-02-18T15:35:29.663Z,887.60
2023-02-18T15:37:59.055Z,894.40
2023-02-18T15:40:35.288Z,901.03
2023-02-18T15:43:04.650Z,888.35
2023-02-18T15:45:35.052Z,898.05
2023-02-18T15:48:02.482Z,896.50
2023-02-18T15:50:36.111Z,885.85
2023-02-18T15:53:08.848Z,885.70
2023-02-18T15:55:38.587Z,883.83
2023-02-18T15:58:11.402Z,884.88
2023-02-18T16:00:48.087Z,892.90
2023-02-18T16:03:31.490Z,889.03
2023-02-18T16:06:19.789Z,890.38
2023-02-18T16:09:02.686Z,887.25
2023-02-18T16:11:35.978Z,888.47
2023-02-18T16:14:02.828Z,878.38
2023-02-18T16:16:33.486Z,880.50
2023-02-18T16:19:01.293Z,883.20
2023-02-18T16:21:38.836Z,873.75
2023-02-18T16:24:29.359Z,871.05
2023-02-18T16:26:59.503Z,871.50
2023-02-18T16:29:32.960Z,871.50
2023-02-18T16:31:59.640Z,868.50
2023-02-18T16:34:27.616Z,868.17
2023-02-18T16:37:13.415Z,859.65
2023-02-18T16:39:40.107Z,867.40
2023-02-18T16:42:11.351Z,865.73
2023-02-18T16:44:38.729Z,864.20
2023-02-18T16:47:06.097Z,864.78
2023-02-18T16:49:34.237Z,857.67
2023-02-18T16:52:05.989Z,865.55
2023-02-18T16:54:32.660Z,857.00
2023-02-18T16:56:59.245Z,855.90
2023-02-18T16:59:26.096Z,861.03
2023-02-18T17:01:52.724Z,856.05
2023-02-18T17:04:20.023Z,849.95
2023-02-18T17:06:47.013Z,844.72
2023-02-18T17:09:21.217Z,842.90
2023-02-18T17:11:53.708Z,847.80
2023-02-18T17:14:22.522Z,845.97
2023-02-18T17:16:52.221Z,844.33
2023-02-18T17:19:18.906Z,842.38
2023-02-18T17:21:48.259Z,842.20
2023-02-18T17:24:17.294Z,841.95
2023-02-18T17:26:44.441Z,844.45
2023-02-18T17:29:11.095Z,833.67
2023-02-18T17:31:41.843Z,838.83
2023-02-18T17:34:12.264Z,838.08
2023-02-18T17:36:45.217Z,843.78
2023-02-18T17:39:14.914Z,843.15
2023-02-18T17:41:42.266Z,845.65
2023-02-18T17:44:20.750Z,844.67
2023-02-18T17:46:49.729Z,841.85
2023-02-18T17:49:16.736Z,829.97
2023-02-18T17:51:43.524Z,834.25
2023-02-18T17:54:16.797Z,837.05
2023-02-18T17:56:44.295Z,832.63
2023-02-18T17:59:11.352Z,831.38
2023-02-18T18:01:38.563Z,832.05
2023-02-18T18:04:11.679Z,834.35
2023-02-18T18:06:38.359Z,832.00
2023-02-18T18:09:05.128Z,840.03
2023-02-18T18:11:32.804Z,836.57
2023-02-18T18:13:59.701Z,839.93
2023-02-18T18:16:26.659Z,842.28
2023-02-18T18:18:53.307Z,841.30
2023-02-18T18:21:38.384Z,833.67
2023-02-18T18:24:05.217Z,835.47
2023-02-18T18:26:31.874Z,827.45
2023-02-18T18:28:58.546Z,835.47
2023-02-18T18:31:25.432Z,840.17
2023-02-18T18:33:53.462Z,837.30
2023-02-18T18:36:21.895Z,841.85
2023-02-18T18:38:49.083Z,836.40
2023-02-18T18:41:18.144Z,843.88
2023-02-18T18:43:45.184Z,843.08
2023-02-18T18:46:11.948Z,844.85
2023-02-18T18:48:38.832Z,834.80
2023-02-18T18:51:06.125Z,840.58
2023-02-18T18:53:34.543Z,841.78
2023-02-18T18:56:04.983Z,840.03
2023-02-18T18:58:31.915Z,834.70
2023-02-18T19:01:02.011Z,837.67
2023-02-18T19:03:30.416Z,838.45
2023-02-18T19:05:57.925Z,841.45
2023-02-18T19:08:25.089Z,843.67
2023-02-18T19:10:56.736Z,843.42
2023-02-18T19:13:31.664Z,843.65
2023-02-18T19:16:14.837Z,847.22
2023-02-18T19:18:41.490Z,844.40
2023-02-18T19:21:08.528Z,840.15
2023-02-18T19:23:36.616Z,838.33
2023-02-18T19:26:03.794Z,838.25
2023-02-18T19:28:30.506Z,843.10
2023-02-18T19:30:57.621Z,844.05
2023-02-18T19:33:24.290Z,839.22
2023-02-18T19:35:50.951Z,838.13
2023-02-18T19:38:19.302Z,837.33
2023-02-18T19:40:46.629Z,833.15
2023-02-18T19:43:13.837Z,828.70
2023-02-18T19:45:43.102Z,824.63
2023-02-18T19:48:10.468Z,808.97
2023-02-18T19:50:37.183Z,813.23
2023-02-18T19:53:03.878Z,803.83
2023-02-18T19:55:30.499Z,804.05
2023-02-18T19:57:57.103Z,801.20
2023-02-18T20:00:23.790Z,796.45
2023-02-18T20:02:50.609Z,797.72
2023-02-18T20:05:18.323Z,804.80
2023-02-18T20:07:47.713Z,802.97
2023-02-18T20:10:19.836Z,800.40
2023-02-18T20:12:50.732Z,798.27
2023-02-18T20:15:17.322Z,792.03
2023-02-18T20:17:43.913Z,792.30
2023-02-18T20:20:10.707Z,791.03
2023-02-18T20:22:37.397Z,789.33
2023-02-18T20:25:04.237Z,784.20
2023-02-18T20:27:31.821Z,776.58
2023-02-18T20:29:58.424Z,784.35
2023-02-18T20:32:25.102Z,779.70
2023-02-18T20:34:51.712Z,779.85
2023-02-18T20:37:18.297Z,786.22
2023-02-18T20:39:44.921Z,780.00
2023-02-18T20:42:16.785Z,785.88
2023-02-18T20:44:49.235Z,784.60
2023-02-18T20:47:15.920Z,784.33
2023-02-18T20:49:42.741Z,785.65
2023-02-18T20:52:10.410Z,796.60
2023-02-18T20:54:37.020Z,793.97
2023-02-18T20:57:03.803Z,792.47
2023-02-18T20:59:32.806Z,790.60
2023-02-18T21:01:59.826Z,797.25
2023-02-18T21:04:26.531Z,805.30
2023-02-18T21:06:54.208Z,791.40
2023-02-18T21:09:21.399Z,795.50
2023-02-18T21:11:48.219Z,794.22
2023-02-18T21:14:14.902Z,792.67
2023-02-18T21:16:41.756Z,781.00
2023-02-18T21:19:12.631Z,789.38
2023-02-18T21:21:39.338Z,783.75
2023-02-18T21:24:06.781Z,784.65
2023-02-18T21:26:33.639Z,791.45
2023-02-18T21:29:02.186Z,796.92
2023-02-18T21:31:34.619Z,789.08
2023-02-18T21:34:02.113Z,785.95
2023-02-18T21:36:30.947Z,787.70
2023-02-18T21:39:00.485Z,789.78
2023-02-18T21:41:28.310Z,788.47
2023-02-18T21:43:55.181Z,784.50
2023-02-18T21:46:24.707Z,787.13
2023-02-18T21:49:06.893Z,788.35
2023-02-18T21:51:59.025Z,790.55
2023-02-18T21:54:39.613Z,792.88
2023-02-18T21:57:11.427Z,792.75
2023-02-18T21:59:38.607Z,780.30
2023-02-18T22:02:06.652Z,783.45
2023-02-18T22:04:36.032Z,778.15
2023-02-18T22:07:03.394Z,782.20
2023-02-18T22:09:30.229Z,782.22
2023-02-18T22:11:56.862Z,781.42
2023-02-18T22:14:23.607Z,777.88
2023-02-18T22:16:52.219Z,777.33
2023-02-18T22:19:18.936Z,778.20
2023-02-18T22:21:45.906Z,780.33
2023-02-18T22:24:13.960Z,790.90
2023-02-18T22:26:41.283Z,781.60
2023-02-18T22:29:07.940Z,781.17
2023-02-18T22:31:34.736Z,779.25
2023-02-18T22:34:01.618Z,784.75
2023-02-18T22:36:29.080Z,773.85
2023-02-18T22:38:56.088Z,775.10
2023-02-18T22:41:24.499Z,777.75
2023-02-18T22:43:59.637Z,775.55
2023-02-18T22:46:27.189Z,773.50
2023-02-18T22:48:56.331Z,761.95
2023-02-18T22:51:25.541Z,762.92
2023-02-18T22:53:54.037Z,754.85
2023-02-18T22:56:22.299Z,766.28
2023-02-18T22:58:50.718Z,759.03
2023-02-18T23:01:39.385Z,753.00
2023-02-18T23:04:11.767Z,758.65
2023-02-18T23:06:40.222Z,750.42
2023-02-18T23:09:08.623Z,748.30
2023-02-18T23:11:35.343Z,752.90
2023-02-18T23:14:21.223Z,768.95
2023-02-18T23:17:09.657Z,768.60
2023-02-18T23:19:37.652Z,773.50
2023-02-18T23:22:04.876Z,780.90
2023-02-18T23:24:34.101Z,769.70
2023-02-18T23:27:01.136Z,769.63
2023-02-18T23:29:27.822Z,773.67
2023-02-18T23:31:54.556Z,778.13
2023-02-18T23:34:36.346Z,778.13
2023-02-18T23:37:02.969Z,781.08
2023-02-18T23:39:29.732Z,788.60
2023-02-18T23:41:56.740Z,796.17
2023-02-18T23:44:24.620Z,796.40
2023-02-18T23:46:51.865Z,794.28
2023-02-18T23:49:23.990Z,797.45
2023-02-18T23:51:52.512Z,800.50
2023-02-18T23:54:19.360Z,796.03
2023-02-18T23:56:46.164Z,791.88
2023-02-18T23:59:13.385Z,795.70
